createdAt,value
2023-04-16T00:01:22.241Z,74.62
2023-04-16T00:04:02.109Z,74.94
2023-04-16T00:06:41.629Z,74.56
2023-04-16T00:09:20.954Z,74.69
2023-04-16T00:12:00.247Z,74.58
2023-04-16T00:14:39.813Z,74.94
2023-04-16T00:17:24.234Z,74.76
2023-04-16T00:20:03.626Z,75.38
2023-04-16T00:22:42.943Z,74.88
2023-04-16T00:25:22.805Z,74.60
2023-04-16T00:28:02.173Z,74.85
2023-04-16T00:30:41.606Z,74.46
2023-04-16T00:33:26.066Z,74.95
2023-04-16T00:36:05.339Z,75.23
2023-04-16T00:38:44.693Z,75.19
2023-04-16T00:41:24.366Z,74.94
2023-04-16T00:44:03.634Z,75.53
2023-04-16T00:46:44.996Z,74.94
2023-04-16T00:49:29.547Z,75.07
2023-04-16T00:52:09.239Z,75.27
2023-04-16T00:54:48.892Z,75.30
2023-04-16T00:57:29.152Z,75.57
2023-04-16T01:00:08.548Z,75.23
2023-04-16T01:02:48.148Z,74.95
2023-04-16T01:05:32.699Z,75.27
2023-04-16T01:08:12.514Z,75.36
2023-04-16T01:10:52.490Z,75.10
2023-04-16T01:13:31.932Z,75.15
2023-04-16T01:16:11.821Z,75.09
2023-04-16T01:18:51.235Z,75.37
2023-04-16T01:21:35.668Z,75.62
2023-04-16T01:24:15.156Z,75.33
2023-04-16T01:26:54.429Z,75.18
2023-04-16T01:29:33.923Z,75.42
2023-04-16T01:32:13.402Z,75.32
2023-04-16T01:34:52.785Z,75.65
2023-04-16T01:37:38.345Z,75.43
2023-04-16T01:40:18.263Z,75.59
2023-04-16T01:42:57.775Z,75.35
2023-04-16T01:45:38.786Z,75.81
2023-04-16T01:48:18.065Z,75.14
2023-04-16T01:50:57.418Z,75.07
2023-04-16T01:53:41.767Z,75.42
2023-04-16T01:56:21.090Z,75.19
2023-04-16T01:59:00.540Z,75.23
2023-04-16T02:01:39.895Z,75.01
2023-04-16T02:04:20.165Z,75.39
2023-04-16T02:06:59.744Z,75.06
2023-04-16T02:09:45.580Z,75.17
2023-04-16T02:12:25.397Z,76.02
2023-04-16T02:15:04.671Z,75.43
2023-04-16T02:17:44.039Z,75.25
2023-04-16T02:20:23.359Z,75.53
2023-04-16T02:23:02.659Z,75.78
2023-04-16T02:25:53.068Z,75.49
2023-04-16T02:28:32.353Z,75.56
2023-04-16T02:31:11.723Z,76.25
2023-04-16T02:33:51.103Z,76.80
2023-04-16T02:36:30.476Z,76.94
2023-04-16T02:39:10.067Z,76.86
2023-04-16T02:41:54.593Z,77.16
2023-04-16T02:44:33.880Z,77.23
2023-04-16T02:47:13.201Z,76.88
2023-04-16T02:49:52.544Z,77.07
2023-04-16T02:52:33.485Z,76.93
2023-04-16T02:55:13.679Z,77.21
2023-04-16T02:57:58.260Z,77.42
2023-04-16T03:00:37.611Z,76.67
2023-04-16T03:03:16.954Z,76.11
2023-04-16T03:05:56.544Z,76.48
2023-04-16T03:08:35.933Z,76.16
2023-04-16T03:11:15.290Z,76.41
2023-04-16T03:13:59.702Z,76.13
2023-04-16T03:16:39.017Z,75.67
2023-04-16T03:19:18.295Z,75.90
2023-04-16T03:21:57.641Z,75.42
2023-04-16T03:24:36.928Z,76.24
2023-04-16T03:27:16.327Z,75.94
2023-04-16T03:30:00.696Z,75.79
2023-04-16T03:32:40.049Z,75.81
2023-04-16T03:35:19.604Z,75.54
2023-04-16T03:37:58.904Z,75.29
2023-04-16T03:40:38.193Z,75.78
2023-04-16T03:43:17.584Z,75.94
2023-04-16T03:46:02.146Z,75.55
2023-04-16T03:48:41.412Z,76.25
2023-04-16T03:51:20.709Z,76.08
2023-04-16T03:54:00.012Z,76.13
2023-04-16T03:56:39.306Z,76.53
2023-04-16T03:59:18.654Z,76.72
2023-04-16T04:02:03.126Z,76.76
2023-04-16T04:04:42.535Z,76.53
2023-04-16T04:07:23.351Z,76.69
2023-04-16T04:10:02.678Z,77.04
2023-04-16T04:12:42.002Z,76.78
2023-04-16T04:15:21.463Z,77.24
2023-04-16T04:18:06.223Z,77.43
2023-04-16T04:20:47.050Z,77.59
2023-04-16T04:23:26.300Z,77.47
2023-04-16T04:26:06.856Z,77.17
2023-04-16T04:28:46.174Z,77.14
2023-04-16T04:31:25.525Z,77.48
2023-04-16T04:34:09.931Z,77.69
2023-04-16T04:36:49.216Z,77.40
2023-04-16T04:39:28.522Z,77.29
2023-04-16T04:42:08.258Z,77.24
2023-04-16T04:44:47.846Z,77.51
2023-04-16T04:47:27.460Z,77.59
2023-04-16T04:50:12.650Z,77.30
2023-04-16T04:52:52.164Z,77.42
2023-04-16T04:55:31.661Z,77.27
2023-04-16T04:58:11.400Z,77.26
2023-04-16T05:00:50.835Z,77.13
2023-04-16T05:03:30.351Z,77.18
2023-04-16T05:06:15.210Z,77.30
2023-04-16T05:08:54.573Z,77.42
2023-04-16T05:11:34.115Z,76.92
2023-04-16T05:14:13.504Z,76.64
2023-04-16T05:16:52.881Z,77.01
2023-04-16T05:19:33.750Z,77.11
2023-04-16T05:22:20.079Z,77.16
2023-04-16T05:24:59.381Z,77.17
2023-04-16T05:27:38.906Z,77.39
2023-04-16T05:30:19.051Z,76.84
2023-04-16T05:32:58.382Z,76.52
2023-04-16T05:35:37.674Z,76.76
2023-04-16T05:38:22.063Z,76.40
2023-04-16T05:41:01.499Z,76.19
2023-04-16T05:43:40.825Z,76.47
2023-04-16T05:46:20.169Z,76.37
2023-04-16T05:48:59.561Z,76.56
2023-04-16T05:51:38.923Z,76.76
2023-04-16T05:54:23.308Z,76.73
2023-04-16T05:59:47.875Z,76.94
2023-04-16T06:02:27.794Z,76.68
2023-04-16T06:05:07.314Z,76.76
2023-04-16T06:07:46.897Z,77.08
2023-04-16T06:10:31.519Z,77.31
2023-04-16T06:13:10.812Z,76.98
2023-04-16T06:15:50.180Z,77.35
2023-04-16T06:18:29.492Z,77.85
2023-04-16T06:21:08.905Z,77.57
2023-04-16T06:23:48.189Z,77.15
2023-04-16T06:26:32.581Z,77.50
2023-04-16T06:29:12.931Z,76.85
2023-04-16T06:31:52.437Z,76.45
2023-04-16T06:34:32.050Z,76.56
2023-04-16T06:37:11.432Z,76.54
2023-04-16T06:39:51.039Z,76.38
2023-04-16T06:42:35.664Z,76.55
2023-04-16T06:45:16.532Z,76.33
2023-04-16T06:47:55.939Z,76.24
2023-04-16T06:50:35.403Z,77.04
2023-04-16T06:53:15.046Z,76.88
2023-04-16T06:55:54.326Z,77.51
2023-04-16T06:58:38.712Z,77.07
2023-04-16T07:01:18.226Z,77.18
2023-04-16T07:03:57.752Z,76.52
2023-04-16T07:06:37.172Z,75.81
2023-04-16T07:09:16.715Z,75.98
2023-04-16T07:11:59.306Z,75.78
2023-04-16T07:14:43.638Z,76.28
2023-04-16T07:17:23.011Z,76.20
2023-04-16T07:20:02.297Z,75.47
2023-04-16T07:22:41.632Z,75.99
2023-04-16T07:25:20.919Z,75.32
2023-04-16T07:28:00.265Z,75.89
2023-04-16T07:30:44.616Z,75.80
2023-04-16T07:33:23.891Z,75.53
2023-04-16T07:36:03.592Z,75.64
2023-04-16T07:38:42.865Z,76.04
2023-04-16T07:41:22.585Z,75.46
2023-04-16T07:44:01.940Z,75.79
2023-04-16T07:46:47.697Z,75.30
2023-04-16T07:49:27.429Z,76.31
2023-04-16T07:52:06.796Z,76.66
2023-04-16T07:54:46.140Z,75.85
2023-04-16T07:57:25.450Z,75.88
2023-04-16T08:00:09.373Z,76.30
2023-04-16T08:02:54.255Z,76.34
2023-04-16T08:05:33.754Z,76.22
2023-04-16T08:08:13.241Z,76.60
2023-04-16T08:10:56.952Z,76.31
2023-04-16T08:13:36.558Z,76.33
2023-04-16T08:16:16.058Z,77.07
2023-04-16T08:19:02.163Z,76.53
2023-04-16T08:21:42.337Z,76.33
2023-04-16T08:24:21.636Z,76.31
2023-04-16T08:27:11.497Z,77.06
2023-04-16T08:29:55.093Z,76.60
2023-04-16T08:32:38.583Z,76.49
2023-04-16T08:35:23.100Z,76.16
2023-04-16T08:38:02.716Z,76.47
2023-04-16T08:40:46.087Z,76.65
2023-04-16T08:43:26.391Z,77.01
2023-04-16T08:46:06.160Z,76.57
2023-04-16T08:48:48.521Z,76.19
2023-04-16T08:51:35.635Z,76.77
2023-04-16T08:54:18.747Z,76.39
2023-04-16T08:56:58.972Z,76.31
2023-04-16T08:59:38.849Z,76.30
2023-04-16T09:02:21.102Z,76.35
2023-04-16T09:05:02.240Z,76.57
2023-04-16T09:07:48.997Z,76.29
2023-04-16T09:10:28.564Z,76.49
2023-04-16T09:13:10.576Z,75.81
2023-04-16T09:15:51.629Z,75.70
2023-04-16T09:18:31.269Z,76.00
2023-04-16T09:21:11.280Z,76.25
2023-04-16T09:23:55.911Z,75.86
2023-04-16T09:26:35.401Z,75.16
2023-04-16T09:29:14.740Z,76.01
2023-04-16T09:32:10.093Z,75.87
2023-04-16T09:35:03.544Z,75.76
2023-04-16T09:37:42.880Z,75.34
2023-04-16T09:40:32.626Z,75.59
2023-04-16T09:43:18.398Z,75.30
2023-04-16T09:45:58.567Z,76.30
2023-04-16T09:51:26.918Z,74.34
2023-04-16T09:54:06.284Z,73.82
2023-04-16T09:56:53.959Z,73.65
2023-04-16T09:59:36.476Z,73.07
2023-04-16T10:02:16.690Z,74.35
2023-04-16T10:04:57.263Z,74.75
2023-04-16T10:07:40.574Z,74.37
2023-04-16T10:10:20.453Z,73.77
2023-04-16T10:13:05.541Z,74.44
2023-04-16T10:15:45.412Z,74.41
2023-04-16T10:18:25.553Z,73.85
2023-04-16T10:21:05.171Z,74.69
2023-04-16T10:23:46.458Z,74.32
2023-04-16T10:26:26.178Z,74.24
2023-04-16T10:29:14.028Z,74.40
2023-04-16T10:31:55.446Z,73.56
2023-04-16T10:34:36.262Z,75.04
2023-04-16T10:37:15.580Z,75.14
2023-04-16T10:39:54.873Z,74.14
2023-04-16T10:42:34.830Z,74.36
2023-04-16T10:45:19.512Z,74.61
2023-04-16T10:47:58.946Z,73.89
2023-04-16T10:50:42.690Z,74.62
2023-04-16T10:53:26.639Z,73.41
2023-04-16T10:56:20.916Z,73.59
2023-04-16T10:59:02.484Z,73.45
2023-04-16T11:01:50.125Z,72.87
2023-04-16T11:04:42.852Z,73.32
2023-04-16T11:07:27.285Z,71.78
2023-04-16T11:10:08.502Z,72.36
2023-04-16T11:12:49.571Z,72.21
2023-04-16T11:15:32.155Z,70.86
2023-04-16T11:18:16.717Z,71.22
2023-04-16T11:20:56.216Z,72.34
2023-04-16T11:23:35.571Z,71.12
2023-04-16T11:26:28.222Z,70.52
2023-04-16T11:29:07.820Z,71.42
2023-04-16T11:31:47.477Z,71.30
2023-04-16T11:34:32.152Z,71.26
2023-04-16T11:37:11.518Z,72.21
2023-04-16T11:40:00.197Z,71.72
2023-04-16T11:42:41.659Z,72.61
2023-04-16T11:45:21.091Z,70.45
2023-04-16T11:48:01.619Z,70.22
2023-04-16T11:50:46.248Z,70.57
2023-04-16T11:53:25.584Z,70.24
2023-04-16T11:56:05.968Z,69.82
2023-04-16T11:58:45.252Z,70.80
2023-04-16T12:01:28.198Z,70.21
2023-04-16T12:04:09.926Z,70.61
2023-04-16T12:07:12.251Z,69.98
2023-04-16T12:09:51.722Z,70.88
2023-04-16T12:12:36.024Z,70.75
2023-04-16T12:15:16.271Z,70.64
2023-04-16T12:17:55.744Z,70.57
2023-04-16T12:20:48.032Z,69.84
2023-04-16T12:23:37.863Z,69.96
2023-04-16T12:26:18.689Z,70.54
2023-04-16T12:28:57.992Z,70.12
2023-04-16T12:31:44.928Z,70.13
2023-04-16T12:34:41.913Z,70.38
2023-04-16T12:37:25.458Z,70.79
2023-04-16T12:40:11.170Z,71.39
2023-04-16T12:42:50.680Z,71.44
2023-04-16T12:45:30.377Z,71.88
2023-04-16T12:48:09.673Z,71.97
2023-04-16T12:50:49.444Z,71.85
2023-04-16T12:53:28.737Z,71.98
2023-04-16T12:56:13.254Z,71.62
2023-04-16T12:58:53.169Z,72.52
2023-04-16T13:01:32.726Z,71.62
2023-04-16T13:04:12.219Z,71.38
2023-04-16T13:06:52.189Z,71.24
2023-04-16T13:09:31.568Z,70.40
2023-04-16T13:12:19.673Z,70.76
2023-04-16T13:14:58.955Z,70.14
2023-04-16T13:17:38.323Z,69.84
2023-04-16T13:20:18.389Z,70.05
2023-04-16T13:22:58.183Z,70.39
2023-04-16T13:25:38.031Z,69.90
2023-04-16T13:28:22.685Z,70.32
2023-04-16T13:31:05.090Z,69.67
2023-04-16T13:33:45.510Z,69.17
2023-04-16T13:36:26.336Z,69.41
2023-04-16T13:39:11.983Z,69.87
2023-04-16T13:41:52.639Z,69.52
2023-04-16T13:44:37.057Z,69.93
2023-04-16T13:47:17.338Z,70.30
2023-04-16T13:49:56.951Z,69.27
2023-04-16T13:52:36.211Z,69.29
2023-04-16T13:55:19.294Z,69.24
2023-04-16T13:57:58.690Z,69.35
2023-04-16T14:00:43.473Z,69.20
2023-04-16T14:03:23.228Z,69.10
2023-04-16T14:06:02.649Z,69.86
2023-04-16T14:08:41.984Z,69.84
2023-04-16T14:11:21.288Z,69.20
2023-04-16T14:14:00.721Z,69.96
2023-04-16T14:16:45.304Z,70.27
2023-04-16T14:19:24.725Z,68.96
2023-04-16T14:22:04.116Z,67.89
2023-04-16T14:24:43.917Z,68.32
2023-04-16T14:27:23.440Z,66.90
2023-04-16T14:30:02.796Z,67.45
2023-04-16T14:32:47.307Z,66.41
2023-04-16T14:35:26.767Z,66.26
2023-04-16T14:38:06.231Z,66.64
2023-04-16T14:40:45.621Z,66.58
2023-04-16T14:43:24.937Z,66.36
2023-04-16T14:46:06.191Z,66.04
2023-04-16T14:48:50.860Z,66.25
2023-04-16T14:51:30.181Z,66.19
2023-04-16T14:54:09.644Z,66.32
2023-04-16T14:56:49.070Z,66.07
2023-04-16T14:59:28.346Z,65.89
2023-04-16T15:02:08.001Z,66.35
2023-04-16T15:04:52.854Z,64.99
2023-04-16T15:07:32.808Z,64.84
2023-04-16T15:10:13.824Z,64.80
2023-04-16T15:12:53.106Z,65.55
2023-04-16T15:15:32.454Z,65.63
2023-04-16T15:18:12.448Z,65.95
2023-04-16T15:20:56.842Z,66.05
2023-04-16T15:23:36.131Z,66.08
2023-04-16T15:26:15.567Z,66.04
2023-04-16T15:28:54.814Z,66.27
2023-04-16T15:31:34.328Z,66.37
2023-04-16T15:34:13.699Z,65.71
2023-04-16T15:36:58.143Z,66.56
2023-04-16T15:39:38.927Z,65.89
2023-04-16T15:42:19.006Z,65.56
2023-04-16T15:45:00.167Z,66.50
2023-04-16T15:47:41.617Z,66.00
2023-04-16T15:50:21.435Z,65.89
2023-04-16T15:53:06.017Z,65.60
2023-04-16T15:58:30.162Z,66.92
2023-04-16T16:01:09.818Z,65.96
2023-04-16T16:03:49.377Z,65.80
2023-04-16T16:06:28.834Z,65.65
2023-04-16T16:09:13.855Z,66.20
2023-04-16T16:11:54.342Z,66.07
2023-04-16T16:14:34.125Z,66.42
2023-04-16T16:17:13.668Z,65.94
2023-04-16T16:19:53.607Z,65.03
2023-04-16T16:22:32.963Z,65.72
2023-04-16T16:25:17.925Z,65.90
2023-04-16T16:27:57.216Z,65.17
2023-04-16T16:30:36.498Z,65.76
2023-04-16T16:33:15.859Z,65.85
2023-04-16T16:35:55.118Z,65.43
2023-04-16T16:38:34.439Z,65.81
2023-04-16T16:41:18.801Z,66.03
2023-04-16T16:43:59.321Z,66.06
2023-04-16T16:46:38.691Z,65.93
2023-04-16T16:49:18.006Z,65.73
2023-04-16T16:51:57.336Z,65.70
2023-04-16T16:54:36.618Z,65.64
2023-04-16T16:57:21.188Z,65.79
2023-04-16T17:00:00.784Z,65.84
2023-04-16T17:02:40.231Z,66.04
2023-04-16T17:05:20.246Z,65.68
2023-04-16T17:07:59.534Z,66.44
2023-04-16T17:10:38.795Z,66.26
2023-04-16T17:13:24.889Z,65.67
2023-04-16T17:16:04.216Z,65.47
2023-04-16T17:18:45.027Z,65.78
2023-04-16T17:21:24.332Z,65.37
2023-04-16T17:24:04.944Z,65.71
2023-04-16T17:26:44.284Z,66.11
2023-04-16T17:29:28.726Z,66.05
2023-04-16T17:32:08.123Z,65.83
2023-04-16T17:34:47.461Z,65.43
2023-04-16T17:37:28.505Z,65.65
2023-04-16T17:40:10.398Z,65.19
2023-04-16T17:42:49.984Z,65.74
2023-04-16T17:45:34.373Z,65.62
2023-04-16T17:48:13.914Z,66.29
2023-04-16T17:50:53.208Z,65.58
2023-04-16T17:53:32.492Z,65.21
2023-04-16T17:56:12.448Z,65.33
2023-04-16T17:58:51.829Z,65.48
2023-04-16T18:01:39.917Z,66.13
2023-04-16T18:04:19.649Z,66.17
2023-04-16T18:06:59.294Z,65.72
2023-04-16T18:09:38.577Z,66.18
2023-04-16T18:12:17.965Z,66.20
2023-04-16T18:14:57.258Z,65.63
2023-04-16T18:17:41.657Z,65.63
2023-04-16T18:20:21.075Z,66.46
2023-04-16T18:23:00.396Z,65.83
2023-04-16T18:25:41.885Z,64.94
2023-04-16T18:28:21.312Z,65.42
2023-04-16T18:31:05.721Z,65.41
2023-04-16T18:33:57.232Z,65.32
2023-04-16T18:36:37.005Z,65.54
2023-04-16T18:39:16.477Z,65.42
2023-04-16T18:41:55.882Z,65.41
2023-04-16T18:44:35.170Z,65.65
2023-04-16T18:47:14.489Z,65.05
2023-04-16T18:49:58.935Z,64.81
2023-04-16T18:52:38.451Z,65.55
2023-04-16T18:55:17.744Z,65.49
2023-04-16T18:57:57.078Z,65.93
2023-04-16T19:00:36.525Z,66.55
2023-04-16T19:03:16.582Z,66.93
2023-04-16T19:06:01.454Z,66.69
2023-04-16T19:08:40.802Z,66.26
2023-04-16T19:11:20.140Z,66.63
2023-04-16T19:13:59.422Z,66.70
2023-04-16T19:16:39.683Z,66.67
2023-04-16T19:19:19.121Z,66.33
2023-04-16T19:22:03.515Z,66.63
2023-04-16T19:24:42.825Z,66.78
2023-04-16T19:27:22.194Z,67.41
2023-04-16T19:30:01.916Z,68.06
2023-04-16T19:32:41.290Z,67.86
2023-04-16T19:35:20.953Z,67.76
2023-04-16T19:38:05.352Z,68.23
2023-04-16T19:40:44.833Z,68.43
2023-04-16T19:43:24.509Z,68.56
2023-04-16T19:46:04.435Z,68.03
2023-04-16T19:48:43.821Z,67.48
2023-04-16T19:51:23.182Z,67.89
2023-04-16T19:54:07.629Z,67.17
2023-04-16T19:56:47.090Z,66.12
2023-04-16T19:59:29.348Z,66.65
2023-04-16T20:02:08.863Z,66.25
2023-04-16T20:04:49.598Z,65.97
2023-04-16T20:07:28.936Z,65.92
2023-04-16T20:10:14.198Z,66.15
2023-04-16T20:12:53.684Z,66.25
2023-04-16T20:15:33.097Z,66.54
2023-04-16T20:18:14.892Z,66.38
2023-04-16T20:20:54.209Z,66.88
2023-04-16T20:23:33.582Z,66.72
2023-04-16T20:26:21.854Z,66.33
2023-04-16T20:29:01.711Z,66.91
2023-04-16T20:31:42.732Z,66.79
2023-04-16T20:34:22.065Z,66.80
2023-04-16T20:37:01.379Z,66.93
2023-04-16T20:39:43.430Z,67.35
2023-04-16T20:42:28.849Z,67.64
2023-04-16T20:45:08.454Z,67.52
2023-04-16T20:47:47.767Z,67.79
2023-04-16T20:50:27.075Z,68.33
2023-04-16T20:53:06.358Z,68.75
2023-04-16T20:55:45.636Z,68.77
2023-04-16T20:58:30.052Z,69.17
2023-04-16T21:01:11.106Z,69.63
2023-04-16T21:03:50.591Z,70.04
2023-04-16T21:06:33.963Z,70.53
2023-04-16T21:09:13.391Z,70.72
2023-04-16T21:11:52.792Z,70.95
2023-04-16T21:14:37.211Z,71.22
2023-04-16T21:17:16.566Z,71.68
2023-04-16T21:19:56.644Z,71.01
2023-04-16T21:22:35.908Z,70.41
2023-04-16T21:25:17.155Z,70.36
2023-04-16T21:27:56.537Z,71.09
2023-04-16T21:30:40.916Z,71.28
2023-04-16T21:33:20.192Z,70.97
2023-04-16T21:35:59.924Z,71.05
2023-04-16T21:38:39.187Z,71.45
2023-04-16T21:41:18.607Z,71.61
2023-04-16T21:43:57.907Z,71.33
2023-04-16T21:46:42.354Z,71.15
2023-04-16T21:49:21.814Z,71.19
2023-04-16T21:52:03.466Z,71.55
2023-04-16T21:54:42.753Z,72.08
2023-04-16T21:57:22.098Z,72.53
2023-04-16T22:00:01.471Z,72.80
2023-04-16T22:02:46.147Z,73.01
2023-04-16T22:05:25.677Z,73.21
2023-04-16T22:08:16.870Z,73.11
2023-04-16T22:11:04.671Z,73.22
2023-04-16T22:13:43.940Z,73.33
2023-04-16T22:16:27.460Z,73.57
2023-04-16T22:19:12.245Z,73.66
2023-04-16T22:21:51.807Z,74.07
2023-04-16T22:24:31.644Z,73.64
2023-04-16T22:27:11.117Z,73.63
2023-04-16T22:29:50.509Z,73.68
2023-04-16T22:32:31.286Z,73.84
2023-04-16T22:35:16.708Z,73.90
2023-04-16T22:37:56.024Z,73.55
2023-04-16T22:40:37.525Z,73.68
2023-04-16T22:43:17.336Z,73.46
2023-04-16T22:45:57.165Z,73.31
2023-04-16T22:48:37.500Z,73.43
2023-04-16T22:51:25.359Z,73.59
2023-04-16T22:54:04.711Z,73.91
2023-04-16T22:56:44.075Z,74.09
2023-04-16T22:59:23.378Z,74.29
2023-04-16T23:02:02.692Z,74.43
2023-04-16T23:04:42.028Z,74.58
2023-04-16T23:07:26.396Z,74.61
2023-04-16T23:10:05.762Z,74.82
2023-04-16T23:12:45.140Z,75.04
2023-04-16T23:15:24.638Z,75.17
2023-04-16T23:18:04.049Z,75.21
2023-04-16T23:20:43.442Z,74.96
2023-04-16T23:23:27.884Z,74.92
2023-04-16T23:26:07.407Z,74.92
2023-04-16T23:28:46.736Z,75.12
2023-04-16T23:31:26.032Z,75.43
2023-04-16T23:34:05.466Z,75.71
2023-04-16T23:36:44.740Z,75.88
2023-04-16T23:39:29.135Z,76.16
2023-04-16T23:42:08.422Z,76.17
2023-04-16T23:44:47.734Z,75.97
2023-04-16T23:47:27.155Z,75.99
2023-04-16T23:50:06.682Z,76.00
2023-04-16T23:52:46.414Z,75.82
2023-04-16T23:55:31.014Z,75.76
2023-04-16T23:58:10.329Z,75.81
